Time;durP1;ratioP1;P1;durP2;ratioP2;P2;SDS_P1;SDS_P2;PMS_P1;PMS_P2;Temp;Humidity;BMP_temperature;BMP_pressure;BME280_temperature;BME280_humidity;BME280_pressure;Samples;Min_cycle;Max_cycle;Signal;HPM_P1;HPM_P2
2022/10/16 00:02:05;;;;;;;3.80;3.00;;;;;;;19.47;56.73;100867.97;5126742;28;20023;-63
2022/10/16 00:04:30;;;;;;;4.28;3.10;;;;;;;19.47;56.64;100864.41;5126682;28;20072;-63
2022/10/16 00:06:56;;;;;;;3.95;2.92;;;;;;;19.40;56.30;100852.63;5126993;28;20468;-63
2022/10/16 00:09:21;;;;;;;5.05;3.20;;;;;;;19.46;56.56;100865.44;5126676;28;20118;-63
2022/10/16 00:11:46;;;;;;;4.10;2.90;;;;;;;19.47;56.41;100867.13;5126274;28;20036;-63
2022/10/16 00:14:14;;;;;;;3.90;3.13;;;;;;;19.42;56.05;100875.72;5140806;27;20114;-62
2022/10/16 00:16:39;;;;;;;4.40;2.88;;;;;;;19.45;56.42;100880.78;5147174;27;20023;-63
2022/10/16 00:19:04;;;;;;;4.57;3.13;;;;;;;19.45;56.09;100882.63;5127887;27;20034;-62
2022/10/16 00:21:31;;;;;;;5.65;2.90;;;;;;;19.45;56.54;100880.78;5130409;27;20025;-63
2022/10/16 00:23:59;;;;;;;4.93;3.55;;;;;;;19.45;56.12;100888.00;5145619;27;20023;-63
2022/10/16 00:26:25;;;;;;;4.20;2.88;;;;;;;19.44;56.16;100884.47;5146778;27;20117;-64
2022/10/16 00:28:51;;;;;;;4.07;2.92;;;;;;;19.44;56.53;100883.63;5146992;27;20040;-62
2022/10/16 00:31:19;;;;;;;3.55;2.50;;;;;;;19.43;56.07;100890.06;5146873;27;20102;-64
2022/10/16 00:33:44;;;;;;;4.90;3.30;;;;;;;19.43;56.22;100898.13;5147002;27;20037;-63
2022/10/16 00:36:13;;;;;;;4.30;2.42;;;;;;;19.42;56.45;100891.91;5146906;27;20023;-63
2022/10/16 00:38:39;;;;;;;3.53;2.47;;;;;;;19.42;55.99;100893.75;5146851;27;20182;-63
2022/10/16 00:41:09;;;;;;;4.05;2.78;;;;;;;19.41;56.42;100886.66;5146473;27;20504;-63
2022/10/16 00:43:40;;;;;;;4.38;2.50;;;;;;;19.40;56.23;100885.81;5145560;27;20021;-63
2022/10/16 00:46:15;;;;;;;4.75;2.83;;;;;;;19.41;56.25;100883.97;5145139;27;20019;-63
2022/10/16 00:48:41;;;;;;;4.53;3.00;;;;;;;19.40;56.36;100885.81;5145567;27;20110;-64
2022/10/16 00:51:07;;;;;;;4.25;2.90;;;;;;;19.39;56.04;100876.06;5145124;27;20031;-63
2022/10/16 00:53:32;;;;;;;3.92;2.65;;;;;;;19.39;56.07;100875.22;5145760;27;20027;-63
2022/10/16 00:55:58;;;;;;;5.00;2.90;;;;;;;19.38;56.02;100887.03;5144713;27;20043;-63
2022/10/16 00:58:23;;;;;;;5.15;2.97;;;;;;;19.38;56.06;100882.47;5145134;27;20038;-63
2022/10/16 01:00:48;;;;;;;4.75;2.97;;;;;;;19.38;56.33;100892.44;5145728;27;20039;-63
2022/10/16 01:03:43;;;;;;;3.38;2.40;;;;;;;19.38;56.04;100890.56;5146429;27;20023;-63
2022/10/16 01:06:32;;;;;;;3.65;2.65;;;;;;;19.37;56.48;100877.25;5123543;27;20054;-63
2022/10/16 01:09:07;;;;;;;2.92;2.50;;;;;;;19.37;56.11;100888.91;5144925;27;20019;-63
2022/10/16 01:11:45;;;;;;;4.57;2.60;;;;;;;19.35;56.50;100877.41;5145602;27;20027;-63
2022/10/16 01:14:26;;;;;;;3.58;2.70;;;;;;;19.35;55.94;100879.28;5146173;27;20023;-63
2022/10/16 01:16:59;;;;;;;3.95;2.60;;;;;;;19.34;56.33;100881.13;5145624;27;20056;-63
2022/10/16 01:19:30;;;;;;;4.32;2.42;;;;;;;19.34;56.28;100874.91;5144942;27;20027;-63
2022/10/16 01:21:57;;;;;;;4.25;2.60;;;;;;;19.34;56.12;100880.31;5144649;27;20039;-62
2022/10/16 01:24:32;;;;;;;4.18;3.10;;;;;;;19.34;56.41;100889.22;5125465;27;20034;-62
2022/10/16 01:27:03;;;;;;;3.63;2.70;;;;;;;19.33;56.07;100892.94;5125031;28;20030;-62
2022/10/16 01:29:51;;;;;;;3.88;2.45;;;;;;;19.30;56.14;100887.88;5125242;28;20019;-62
2022/10/16 01:32:23;;;;;;;3.63;2.78;;;;;;;19.24;55.99;100875.06;5125424;28;20057;-62
2022/10/16 01:34:55;;;;;;;4.25;2.55;;;;;;;19.25;56.14;100871.38;5124036;28;20049;-62
2022/10/16 01:37:29;;;;;;;4.25;2.80;;;;;;;19.32;56.22;100887.69;5124159;28;20023;-62
2022/10/16 01:39:58;;;;;;;3.28;2.30;;;;;;;19.30;56.36;100884.34;5123528;28;20045;-62
2022/10/16 01:42:29;;;;;;;3.70;2.60;;;;;;;19.29;56.28;100877.28;5123555;28;20034;-62
2022/10/16 01:44:54;;;;;;;4.13;2.88;;;;;;;19.22;56.04;100858.25;5123869;28;20110;-62
2022/10/16 01:47:22;;;;;;;3.10;2.10;;;;;;;19.30;56.09;100878.97;5123606;28;20027;-63
2022/10/16 01:49:48;;;;;;;4.45;2.40;;;;;;;19.30;55.94;100881.66;5123236;28;20049;-63
2022/10/16 01:52:17;;;;;;;2.65;2.15;;;;;;;19.29;56.22;100880.81;5127830;27;20023;-63
2022/10/16 01:54:46;;;;;;;3.17;2.42;;;;;;;19.25;56.26;100874.09;5144188;27;20030;-63
2022/10/16 01:57:12;;;;;;;3.10;2.53;;;;;;;19.28;56.26;100879.13;5130334;27;20046;-63
2022/10/16 01:59:43;;;;;;;3.63;2.30;;;;;;;19.21;56.11;100868.19;5123138;28;20036;-63
2022/10/16 02:02:09;;;;;;;3.45;2.38;;;;;;;19.24;55.86;100880.47;5123244;28;20043;-63
2022/10/16 02:04:39;;;;;;;2.92;2.40;;;;;;;19.28;55.88;100883.66;5124715;28;20024;-63
2022/10/16 02:07:05;;;;;;;3.88;2.33;;;;;;;19.22;56.27;100880.66;5123824;28;20019;-63
2022/10/16 02:09:33;;;;;;;2.97;2.08;;;;;;;19.27;56.12;100890.06;5123019;28;20032;-63
2022/10/16 02:11:59;;;;;;;4.28;2.60;;;;;;;19.24;55.92;100888.56;5124125;28;20031;-62
2022/10/16 02:14:25;;;;;;;2.55;2.13;;;;;;;19.26;56.23;100905.41;5139725;27;20023;-62
2022/10/16 02:16:50;;;;;;;3.63;2.38;;;;;;;19.26;56.21;100899.19;5143469;27;20459;-62
2022/10/16 02:19:18;;;;;;;2.85;2.25;;;;;;;19.26;55.88;100880.31;5143624;27;20023;-62
2022/10/16 02:21:46;;;;;;;3.28;2.03;;;;;;;19.26;55.80;100880.31;5139910;27;20019;-63
2022/10/16 02:24:18;;;;;;;3.83;2.33;;;;;;;19.25;56.05;100881.34;5125019;28;20512;-63
2022/10/16 02:26:55;;;;;;;3.60;2.50;;;;;;;19.26;56.12;100880.31;5123015;28;20042;-62
2022/10/16 02:29:24;;;;;;;3.60;2.90;;;;;;;19.23;56.08;100887.72;5123781;28;20030;-62
2022/10/16 02:31:52;;;;;;;3.00;2.50;;;;;;;19.23;55.75;100893.09;5122695;28;20020;-63
2022/10/16 02:34:19;;;;;;;3.22;2.38;;;;;;;19.22;56.25;100891.44;5124165;28;20047;-62
2022/10/16 02:36:45;;;;;;;3.40;2.17;;;;;;;19.23;55.76;100892.28;5123052;28;20032;-62
2022/10/16 02:39:11;;;;;;;3.30;2.17;;;;;;;19.23;56.01;100884.19;5122775;28;20114;-63
2022/10/16 02:41:37;;;;;;;2.92;2.30;;;;;;;19.22;55.68;100891.44;5122453;28;20024;-63
2022/10/16 02:44:02;;;;;;;2.85;2.10;;;;;;;19.22;55.82;100890.59;5123033;28;20028;-63
2022/10/16 02:46:27;;;;;;;2.90;1.98;;;;;;;19.22;55.88;100893.28;5123846;28;20504;-63
2022/10/16 02:48:52;;;;;;;2.47;2.10;;;;;;;19.21;55.80;100892.44;5124291;28;20095;-63
2022/10/16 02:51:18;;;;;;;2.75;2.00;;;;;;;19.21;55.82;100897.00;5139455;28;20087;-63
2022/10/16 02:53:43;;;;;;;2.88;1.95;;;;;;;19.21;55.77;100891.63;5144628;28;20038;-62
2022/10/16 02:56:08;;;;;;;2.83;2.20;;;;;;;19.20;55.71;100900.72;5144046;28;20132;-63
2022/10/16 02:58:34;;;;;;;2.95;1.98;;;;;;;19.15;55.74;100887.72;5144428;28;20056;-63
2022/10/16 03:00:59;;;;;;;2.58;2.03;;;;;;;19.11;55.87;100874.75;5144212;28;20059;-63
2022/10/16 03:03:24;;;;;;;2.80;2.10;;;;;;;19.19;55.82;100899.84;5144467;28;20078;-63
2022/10/16 03:05:49;;;;;;;2.63;2.10;;;;;;;19.19;56.12;100904.41;5144438;28;20030;-63
2022/10/16 03:08:15;;;;;;;3.28;2.10;;;;;;;19.19;56.02;100904.41;5144430;28;20023;-62
2022/10/16 03:10:41;;;;;;;2.83;2.03;;;;;;;19.18;55.90;100906.25;5144050;27;20027;-62
2022/10/16 03:13:06;;;;;;;2.88;2.22;;;;;;;19.18;55.71;100906.25;5143833;27;20028;-62
2022/10/16 03:15:32;;;;;;;2.58;1.92;;;;;;;19.13;55.71;100905.09;5144514;27;20038;-62
2022/10/16 03:17:58;;;;;;;3.75;2.20;;;;;;;19.18;55.73;100917.03;5144333;28;20031;-62
2022/10/16 03:20:23;;;;;;;2.58;2.00;;;;;;;19.16;55.68;100921.78;5133394;27;20059;-60
2022/10/16 03:22:49;;;;;;;2.75;1.95;;;;;;;19.17;55.89;100909.97;5138521;28;20056;-63
2022/10/16 03:25:14;;;;;;;3.63;1.95;;;;;;;19.17;55.93;100911.84;5144426;27;20080;-62
2022/10/16 03:27:39;;;;;;;2.42;2.00;;;;;;;19.11;55.89;100910.63;5143846;28;20030;-62
2022/10/16 03:30:05;;;;;;;2.10;1.80;;;;;;;19.11;55.94;100905.25;5143749;28;20027;-63
2022/10/16 03:32:30;;;;;;;3.53;2.00;;;;;;;19.14;56.08;100907.63;5144301;27;20038;-63
2022/10/16 03:34:56;;;;;;;2.72;1.75;;;;;;;19.15;55.99;100911.97;5144209;28;20035;-63
2022/10/16 03:37:22;;;;;;;2.22;1.95;;;;;;;19.14;56.02;100907.63;5144451;28;20051;-63
2022/10/16 03:39:47;;;;;;;2.10;1.73;;;;;;;19.15;55.71;100916.53;5147012;27;20587;-64
2022/10/16 03:42:12;;;;;;;3.25;2.10;;;;;;;19.15;55.97;100916.53;5146380;27;20034;-61
2022/10/16 03:44:37;;;;;;;2.72;2.10;;;;;;;18.99;55.77;100882.38;5145097;27;20043;-62
2022/10/16 03:47:03;;;;;;;3.20;2.13;;;;;;;19.14;56.11;100915.69;5126974;28;20419;-63
2022/10/16 03:49:28;;;;;;;2.50;1.80;;;;;;;19.14;55.66;100920.25;5127286;27;20038;-63
2022/10/16 03:51:53;;;;;;;2.38;2.13;;;;;;;19.14;55.64;100914.84;5127105;28;20039;-63
2022/10/16 03:54:19;;;;;;;2.60;1.80;;;;;;;19.13;55.93;100919.41;5126784;28;20084;-63
2022/10/16 03:56:44;;;;;;;2.60;1.65;;;;;;;18.81;55.85;100877.16;5137148;27;20051;-62
2022/10/16 03:59:09;;;;;;;2.45;1.90;;;;;;;19.13;55.96;100923.97;5125126;28;20539;-62
2022/10/16 04:01:34;;;;;;;2.05;1.77;;;;;;;19.12;55.90;100924.97;5126696;28;20068;-62
2022/10/16 04:04:00;;;;;;;2.42;1.98;;;;;;;19.12;55.69;100928.53;5126957;28;20072;-61
2022/10/16 04:06:25;;;;;;;2.78;1.83;;;;;;;19.12;55.69;100928.53;5128271;27;20027;-62
2022/10/16 04:08:50;;;;;;;2.08;1.63;;;;;;;19.12;56.07;100930.38;5135133;27;20031;-62
2022/10/16 04:11:15;;;;;;;2.38;2.00;;;;;;;19.09;55.86;100934.22;5146751;27;20023;-63
2022/10/16 04:13:41;;;;;;;2.10;1.80;;;;;;;19.11;55.74;100932.19;5146534;27;20019;-62
2022/10/16 04:16:06;;;;;;;2.63;2.03;;;;;;;19.12;56.01;100930.38;5127651;27;20036;-63
2022/10/16 04:18:32;;;;;;;2.25;1.73;;;;;;;19.11;56.04;100936.75;5142487;27;20082;-63
2022/10/16 04:21:02;;;;;;;2.10;1.65;;;;;;;19.12;55.71;100944.69;5127688;27;20036;-62
2022/10/16 04:23:28;;;;;;;2.42;1.50;;;;;;;19.10;55.47;100951.25;5126347;28;20039;-62
2022/10/16 04:25:53;;;;;;;2.50;2.00;;;;;;;19.11;55.75;100951.06;5131338;27;20024;-63
2022/10/16 04:28:18;;;;;;;3.78;2.22;;;;;;;19.10;55.90;100951.25;5146161;27;20026;-63
2022/10/16 04:30:43;;;;;;;2.05;1.70;;;;;;;19.12;55.90;100946.53;5145349;27;20031;-63
2022/10/16 04:33:09;;;;;;;1.90;1.70;;;;;;;19.12;55.75;100958.16;5146836;27;20027;-63
2022/10/16 04:35:35;;;;;;;2.65;2.08;;;;;;;19.12;55.93;100960.03;5146756;27;20038;-63
2022/10/16 04:38:00;;;;;;;2.15;1.80;;;;;;;19.08;55.87;100961.38;5146718;27;20039;-63
2022/10/16 04:40:25;;;;;;;2.88;1.70;;;;;;;19.13;55.89;100972.47;5146366;27;20045;-63
2022/10/16 04:42:51;;;;;;;2.53;1.70;;;;;;;19.09;56.21;100968.44;5145826;27;20066;-62
2022/10/16 04:45:16;;;;;;;2.10;1.70;;;;;;;19.12;56.09;100985.13;5134240;27;20023;-63
2022/10/16 04:47:41;;;;;;;2.20;1.80;;;;;;;19.10;55.89;100976.34;5145370;27;20038;-63
2022/10/16 04:50:07;;;;;;;3.03;2.00;;;;;;;19.13;56.13;100988.66;5139366;27;20051;-62
2022/10/16 04:52:32;;;;;;;2.83;1.60;;;;;;;19.04;56.09;100984.28;5125917;28;20080;-63
2022/10/16 04:55:01;;;;;;;3.15;2.00;;;;;;;19.14;56.30;100987.63;5135741;27;20070;-63
2022/10/16 04:57:26;;;;;;;3.15;1.52;;;;;;;19.13;55.90;100994.03;5145078;27;20035;-62
2022/10/16 04:59:52;;;;;;;2.05;1.50;;;;;;;19.12;56.10;100993.19;5146453;27;20060;-61
2022/10/16 05:02:17;;;;;;;2.67;1.75;;;;;;;19.13;56.21;101004.81;5140171;27;20069;-62
2022/10/16 05:04:42;;;;;;;2.38;1.60;;;;;;;19.12;56.35;101001.28;5129086;27;20023;-62
2022/10/16 05:07:08;;;;;;;1.88;1.30;;;;;;;19.11;56.25;100994.19;5133800;27;20029;-62
2022/10/16 05:09:33;;;;;;;2.40;1.65;;;;;;;19.12;56.23;101001.28;5146215;27;20031;-62
2022/10/16 05:11:58;;;;;;;3.15;1.52;;;;;;;19.09;56.05;100998.91;5144827;27;20502;-62
2022/10/16 05:14:23;;;;;;;2.13;1.52;;;;;;;19.13;56.20;101007.50;5145845;27;20030;-62
2022/10/16 05:16:49;;;;;;;2.08;1.50;;;;;;;19.12;56.22;101008.53;5144457;27;20035;-62
2022/10/16 05:19:14;;;;;;;2.15;1.50;;;;;;;19.13;56.35;101013.75;5146503;27;20023;-62
2022/10/16 05:21:39;;;;;;;1.48;1.38;;;;;;;19.13;56.53;101005.66;5145600;27;20131;-62
2022/10/16 05:24:05;;;;;;;2.35;1.52;;;;;;;19.02;56.17;100997.06;5146142;27;20660;-62
2022/10/16 05:26:30;;;;;;;2.92;1.60;;;;;;;19.13;56.21;101023.69;5142800;27;20042;-62
2022/10/16 05:28:55;;;;;;;2.28;1.45;;;;;;;19.13;56.67;101026.38;5125180;28;20049;-63
2022/10/16 05:31:20;;;;;;;1.98;1.48;;;;;;;19.10;56.67;101026.69;5124529;28;20020;-63
2022/10/16 05:33:46;;;;;;;2.42;1.30;;;;;;;19.11;56.56;101023.81;5125023;28;20034;-63
2022/10/16 05:36:11;;;;;;;2.03;1.40;;;;;;;19.11;56.23;101031.06;5124940;28;20023;-62
2022/10/16 05:38:37;;;;;;;2.30;1.63;;;;;;;19.12;56.65;101033.63;5121907;27;20927;-60
2022/10/16 05:41:03;;;;;;;3.10;1.80;;;;;;;19.02;56.48;101015.91;5138729;27;20031;-61
2022/10/16 05:43:29;;;;;;;2.67;1.48;;;;;;;19.14;56.49;101033.44;5136950;27;20028;-62
2022/10/16 05:45:59;;;;;;;3.08;1.60;;;;;;;19.14;56.61;101034.28;5134024;27;20030;-61
2022/10/16 05:48:25;;;;;;;5.38;1.70;;;;;;;19.14;57.06;101045.06;5130528;27;20107;-61
2022/10/16 05:51:02;;;;;;;2.72;1.42;;;;;;;19.15;56.80;101059.38;5127676;27;20352;-64
2022/10/16 05:53:28;;;;;;;2.17;1.70;;;;;;;19.15;56.85;101056.69;5145363;27;20037;-65
2022/10/16 05:55:54;;;;;;;1.90;1.20;;;;;;;19.15;56.93;101059.38;5144970;27;20067;-66
2022/10/16 05:58:20;;;;;;;2.30;1.60;;;;;;;19.15;56.87;101073.69;5144464;27;20091;-66
2022/10/16 06:00:53;;;;;;;2.03;1.50;;;;;;;19.16;56.85;101069.19;5144680;27;20031;-66
2022/10/16 06:03:18;;;;;;;1.30;1.10;;;;;;;19.15;56.81;101075.56;5145125;27;20042;-66
2022/10/16 06:05:43;;;;;;;2.97;1.50;;;;;;;19.15;56.54;101067.47;5145081;27;20022;-63
2022/10/16 06:08:08;;;;;;;2.90;1.60;;;;;;;19.14;56.45;101080.09;5144955;27;20025;-61
2022/10/16 06:10:34;;;;;;;2.75;1.40;;;;;;;19.14;56.60;101087.34;5144631;27;20494;-63
2022/10/16 06:12:59;;;;;;;3.72;1.40;;;;;;;19.13;56.86;101086.50;5144394;27;20447;-62
2022/10/16 06:15:24;;;;;;;4.30;1.83;;;;;;;19.13;56.61;101093.75;5145003;27;20026;-62
2022/10/16 06:17:49;;;;;;;2.92;1.35;;;;;;;19.12;56.44;101100.16;5144683;27;20011;-62
2022/10/16 06:20:15;;;;;;;5.05;1.60;;;;;;;19.11;56.64;101102.00;5144385;27;20030;-61
2022/10/16 06:22:40;;;;;;;2.33;1.30;;;;;;;19.11;56.53;101098.44;5119284;27;20547;-60
2022/10/16 06:25:05;;;;;;;2.10;1.50;;;;;;;19.11;56.84;101115.47;5129077;27;20027;-60
2022/10/16 06:27:31;;;;;;;7.97;1.80;;;;;;;19.11;56.57;101118.16;5135073;27;20023;-60
2022/10/16 06:29:57;;;;;;;3.83;1.48;;;;;;;19.11;56.40;101112.78;5135996;27;20038;-61
2022/10/16 06:32:22;;;;;;;4.63;2.00;;;;;;;19.11;56.66;101112.78;5127857;27;20031;-62
2022/10/16 06:34:47;;;;;;;2.72;1.52;;;;;;;19.12;56.61;101119.88;5139920;27;20024;-61
2022/10/16 06:37:13;;;;;;;2.10;1.30;;;;;;;19.12;56.54;101129.81;5123786;28;20036;-60
2022/10/16 06:39:38;;;;;;;1.80;1.35;;;;;;;19.08;56.32;101123.06;5133225;28;20062;-60
2022/10/16 06:42:04;;;;;;;2.47;1.40;;;;;;;19.10;56.39;101132.66;5130511;27;20032;-60
2022/10/16 06:44:29;;;;;;;2.85;1.50;;;;;;;19.10;57.00;101134.50;5140773;28;20027;-60
2022/10/16 06:46:54;;;;;;;2.70;1.60;;;;;;;19.12;56.42;101143.28;5127162;28;20030;-59
2022/10/16 06:49:22;;;;;;;1.88;1.40;;;;;;;19.13;56.53;101151.19;5137346;28;20032;-60
2022/10/16 06:51:48;;;;;;;3.53;1.58;;;;;;;19.13;56.46;101153.06;5127623;28;20089;-60
2022/10/16 06:54:15;;;;;;;1.80;1.20;;;;;;;19.06;56.47;101149.31;5138596;28;20047;-60
2022/10/16 06:56:40;;;;;;;2.42;1.55;;;;;;;19.03;56.66;101149.63;5126712;27;20058;-60
2022/10/16 06:59:05;;;;;;;2.63;1.70;;;;;;;19.13;56.30;101174.63;5138538;28;20102;-59
2022/10/16 07:01:31;;;;;;;4.47;1.33;;;;;;;18.97;56.34;101160.06;5132245;28;20031;-58
2022/10/16 07:03:57;;;;;;;4.45;1.33;;;;;;;19.13;56.46;101171.91;5131654;27;20049;-59
2022/10/16 07:06:24;;;;;;;1.92;1.40;;;;;;;19.13;56.52;101180.00;5139925;28;20015;-57
2022/10/16 07:08:49;;;;;;;1.70;1.33;;;;;;;19.13;56.50;101190.78;5125739;27;20034;-57
2022/10/16 07:11:16;;;;;;;3.28;1.30;;;;;;;19.13;56.60;101205.09;5136838;28;20027;-58
2022/10/16 07:13:43;;;;;;;2.20;1.55;;;;;;;19.13;56.19;101204.25;5135222;27;20045;-58
2022/10/16 07:16:11;;;;;;;3.05;1.15;;;;;;;19.03;56.35;101190.94;5148328;27;20072;-58
2022/10/16 07:18:38;;;;;;;1.48;1.30;;;;;;;19.14;56.07;101209.47;5130741;27;20028;-59
2022/10/16 07:21:05;;;;;;;1.75;1.33;;;;;;;19.18;56.17;101205.44;5142902;27;20061;-59
2022/10/16 07:23:30;;;;;;;3.42;1.35;;;;;;;19.19;56.08;101206.28;5136534;27;20377;-58
2022/10/16 07:25:55;;;;;;;2.25;1.15;;;;;;;19.19;56.14;101217.91;5140864;27;20030;-59
2022/10/16 07:28:20;;;;;;;2.75;1.50;;;;;;;19.21;56.29;101225.84;5147411;27;20036;-58
2022/10/16 07:30:46;;;;;;;3.28;1.42;;;;;;;19.21;55.87;101226.69;5129135;27;20020;-58
2022/10/16 07:33:11;;;;;;;3.58;1.30;;;;;;;19.20;56.27;101225.00;5141567;27;20068;-59
2022/10/16 07:35:36;;;;;;;2.33;1.27;;;;;;;19.21;56.24;101237.47;5135450;27;20038;-58
2022/10/16 07:38:01;;;;;;;2.67;1.20;;;;;;;19.14;55.81;101217.56;5145299;27;20052;-58
2022/10/16 07:40:27;;;;;;;3.90;1.30;;;;;;;19.23;56.13;101234.59;5146400;27;20027;-59
2022/10/16 07:42:52;;;;;;;1.65;1.15;;;;;;;19.23;55.74;101238.16;5130104;27;20025;-58
2022/10/16 07:45:17;;;;;;;2.13;1.45;;;;;;;19.24;56.08;101241.69;5141027;27;20024;-59
2022/10/16 07:47:42;;;;;;;1.60;1.10;;;;;;;19.26;55.83;101246.94;5134834;27;20026;-58
2022/10/16 07:50:08;;;;;;;1.67;1.30;;;;;;;19.26;56.04;101242.38;5140835;27;20027;-58
2022/10/16 07:52:33;;;;;;;1.95;1.10;;;;;;;19.28;55.60;101255.69;5130617;27;20031;-58
2022/10/16 07:54:58;;;;;;;1.35;1.15;;;;;;;19.29;55.73;101241.22;5143114;27;20388;-56
2022/10/16 07:57:24;;;;;;;2.05;1.20;;;;;;;19.31;56.10;101249.97;5136625;27;20075;-57
2022/10/16 07:59:49;;;;;;;3.15;1.20;;;;;;;19.24;56.02;101244.38;5135652;27;20032;-59
2022/10/16 08:02:14;;;;;;;4.05;1.50;;;;;;;19.30;55.65;101245.59;5140414;27;20087;-59
2022/10/16 08:04:39;;;;;;;1.83;1.33;;;;;;;19.29;55.94;101258.25;5129874;27;20031;-59
2022/10/16 08:07:07;;;;;;;1.35;1.25;;;;;;;19.30;56.27;101257.22;5141988;27;20071;-58
2022/10/16 08:09:32;;;;;;;2.20;1.20;;;;;;;19.29;56.38;101244.75;5135460;27;20035;-56
2022/10/16 08:11:57;;;;;;;1.42;1.10;;;;;;;19.30;56.08;101249.13;5133777;27;20060;-57
2022/10/16 08:14:23;;;;;;;2.80;1.42;;;;;;;19.31;56.41;101252.66;5142368;27;20027;-58
2022/10/16 08:16:48;;;;;;;1.92;1.40;;;;;;;19.31;56.42;101258.91;5143801;27;20031;-58
2022/10/16 08:19:15;;;;;;;3.28;1.05;;;;;;;19.30;56.38;101261.78;5132998;27;20031;-58
2022/10/16 08:21:40;;;;;;;3.85;1.50;;;;;;;19.33;56.42;101275.78;5136502;27;20039;-59
2022/10/16 08:24:05;;;;;;;3.42;1.30;;;;;;;19.36;56.46;101274.59;5140023;27;20027;-59
2022/10/16 08:26:31;;;;;;;1.70;1.23;;;;;;;19.39;56.41;101277.81;5135975;27;20027;-60
2022/10/16 08:28:56;;;;;;;4.00;1.38;;;;;;;19.42;56.07;101282.03;5139581;27;20038;-57
2022/10/16 08:31:21;;;;;;;3.42;1.33;;;;;;;19.44;56.25;101288.94;5146393;27;20031;-56
2022/10/16 08:33:47;;;;;;;3.33;1.25;;;;;;;19.41;56.12;101294.69;5146887;27;20050;-57
2022/10/16 08:36:13;;;;;;;5.63;1.65;;;;;;;19.37;56.09;101289.75;5146874;27;20023;-57
2022/10/16 08:38:39;;;;;;;6.95;1.50;;;;;;;19.47;55.72;101312.91;5145401;27;20043;-56
2022/10/16 08:41:19;;;;;;;10.63;1.80;;;;;;;19.51;55.69;101307.19;5136635;27;20049;-57
2022/10/16 08:44:01;;;;;;;10.27;2.20;;;;;;;19.56;55.89;101297.59;5126200;28;20581;-57
2022/10/16 08:46:52;;;;;;;7.80;1.55;;;;;;;19.62;55.65;101296.13;5124651;28;20039;-56
2022/10/16 08:49:17;;;;;;;5.60;1.85;;;;;;;19.67;55.64;101309.97;5124535;27;20032;-57
2022/10/16 08:51:43;;;;;;;4.07;1.30;;;;;;;19.73;55.64;101314.72;5124470;28;20050;-55
2022/10/16 08:54:30;;;;;;;2.22;1.38;;;;;;;19.79;55.17;101318.59;5124596;28;20041;-56
2022/10/16 08:56:56;;;;;;;2.72;1.33;;;;;;;19.83;55.51;101326.19;5125307;28;20054;-56
2022/10/16 08:59:22;;;;;;;5.38;1.48;;;;;;;19.88;55.02;101328.41;5125699;28;20087;-57
2022/10/16 09:01:50;;;;;;;6.07;1.65;;;;;;;19.89;55.35;101339.03;5128466;27;20038;-56
2022/10/16 09:04:27;;;;;;;4.72;1.73;;;;;;;19.95;55.09;101346.47;5136679;27;20034;-56
2022/10/16 09:07:04;;;;;;;5.43;1.50;;;;;;;19.99;54.69;101352.38;5144887;27;20090;-57
2022/10/16 09:09:52;;;;;;;3.05;1.40;;;;;;;20.03;54.78;101351.03;5124214;28;20062;-54
2022/10/16 09:12:23;;;;;;;4.90;1.30;;;;;;;20.05;54.58;101349.03;5125152;28;20483;-58
2022/10/16 09:15:15;;;;;;;7.60;1.33;;;;;;;20.08;54.27;101362.19;5143886;27;20041;-58
2022/10/16 09:17:45;;;;;;;4.43;1.63;;;;;;;20.08;54.17;101367.59;5144236;27;20019;-56
2022/10/16 09:20:27;;;;;;;6.70;1.30;;;;;;;20.10;54.38;101370.13;5145281;27;20030;-57
2022/10/16 09:23:08;;;;;;;2.85;1.38;;;;;;;19.91;54.22;101342.41;5146024;27;20475;-57
2022/10/16 09:25:33;;;;;;;5.65;2.33;;;;;;;20.09;54.15;101376.53;5145852;27;20030;-57
2022/10/16 09:27:59;;;;;;;7.35;1.65;;;;;;;20.08;54.17;101381.09;5145273;27;20034;-56
2022/10/16 09:30:28;;;;;;;4.68;1.73;;;;;;;20.08;54.38;101383.78;5145163;27;20023;-58
2022/10/16 09:32:54;;;;;;;3.47;1.30;;;;;;;20.08;54.18;101382.94;5145746;27;20011;-58
2022/10/16 09:35:31;;;;;;;4.82;2.10;;;;;;;20.07;53.95;101392.91;5145036;27;20086;-55
2022/10/16 09:37:57;;;;;;;6.43;1.45;;;;;;;20.04;54.26;101395.06;5143686;27;20034;-57
2022/10/16 09:40:30;;;;;;;2.75;1.27;;;;;;;20.05;54.39;101394.06;5145360;27;20019;-55
2022/10/16 09:43:05;;;;;;;4.50;1.35;;;;;;;20.05;54.07;101397.63;5145293;27;20027;-57
2022/10/16 09:45:31;;;;;;;5.43;1.40;;;;;;;20.05;54.45;101391.34;5134493;27;20024;-56
2022/10/16 09:47:56;;;;;;;4.78;1.65;;;;;;;20.00;54.18;101380.22;5125389;27;20041;-57
2022/10/16 09:50:26;;;;;;;3.03;1.75;;;;;;;20.03;54.03;101388.00;5128742;27;20027;-55
2022/10/16 09:52:51;;;;;;;2.88;1.30;;;;;;;20.05;54.19;101404.84;5145555;27;20114;-56
2022/10/16 09:55:18;;;;;;;5.43;1.30;;;;;;;20.05;54.23;101405.72;5145470;27;20023;-54
2022/10/16 09:57:50;;;;;;;4.55;1.27;;;;;;;19.95;54.21;101395.03;5144343;27;20015;-55
2022/10/16 10:00:17;;;;;;;3.40;1.30;;;;;;;20.06;54.41;101414.66;5145228;27;20098;-55
2022/10/16 10:02:42;;;;;;;1.70;1.17;;;;;;;20.05;54.21;101412.94;5138873;27;20015;-58
2022/10/16 10:05:28;;;;;;;2.67;1.10;;;;;;;20.06;54.20;101407.41;5123942;28;20438;-57
2022/10/16 10:07:56;;;;;;;2.90;1.50;;;;;;;20.03;54.76;101404.19;5123973;28;20028;-57
2022/10/16 10:10:26;;;;;;;2.20;1.20;;;;;;;20.02;54.41;101397.94;5123103;28;20019;-56
2022/10/16 10:12:53;;;;;;;3.03;1.30;;;;;;;20.05;54.83;101408.44;5126204;27;20019;-56
2022/10/16 10:15:21;;;;;;;4.40;1.35;;;;;;;20.06;54.78;101415.50;5145260;27;20034;-57
2022/10/16 10:17:56;;;;;;;2.55;1.35;;;;;;;20.04;54.74;101404.00;5144443;27;20106;-57
2022/10/16 10:20:30;;;;;;;3.28;1.13;;;;;;;20.06;54.98;101411.97;5144281;27;20383;-56
2022/10/16 10:22:55;;;;;;;2.33;1.20;;;;;;;19.78;54.88;101369.00;5144960;27;20023;-57
2022/10/16 10:25:31;;;;;;;3.15;1.30;;;;;;;20.06;54.83;101415.50;5143517;27;20026;-57
2022/10/16 10:28:35;;;;;;;2.63;1.00;;;;;;;19.96;54.85;101402.16;5123497;28;20011;-54
2022/10/16 10:31:10;;;;;;;1.65;1.10;;;;;;;20.07;54.85;101440.66;5123853;28;20115;-56
2022/10/16 10:33:46;;;;;;;7.63;2.78;;;;;;;20.01;54.86;101419.69;5124142;28;20026;-54
2022/10/16 10:36:33;;;;;;;4.53;1.40;;;;;;;20.06;55.26;101423.59;5128831;27;20040;-56
2022/10/16 10:39:00;;;;;;;2.72;1.15;;;;;;;20.08;54.94;101434.22;5123961;28;20020;-57
2022/10/16 10:41:43;;;;;;;4.85;1.38;;;;;;;19.97;55.23;101414.63;5136919;28;20026;-57
2022/10/16 10:44:15;;;;;;;2.17;1.10;;;;;;;20.10;55.10;101440.31;5144827;27;20069;-54
2022/10/16 10:46:48;;;;;;;2.00;1.10;;;;;;;20.13;54.60;101445.38;5144516;27;20048;-56
2022/10/16 10:50:04;;;;;;;2.95;1.58;;;;;;;20.13;54.79;101439.97;5146810;27;20053;-56
2022/10/16 10:52:39;;;;;;;3.25;1.45;;;;;;;20.16;54.96;101445.06;5084923;28;20730;-58
2022/10/16 10:55:36;;;;;;;2.80;1.27;;;;;;;20.16;55.03;101443.19;5068124;28;20036;-55
2022/10/16 10:58:07;;;;;;;2.85;1.10;;;;;;;20.19;54.77;101448.28;5067360;28;20108;-56
2022/10/16 11:01:01;;;;;;;2.47;1.17;;;;;;;20.18;55.07;101443.91;5084427;28;20096;-56
2022/10/16 11:03:57;;;;;;;4.03;1.55;;;;;;;20.19;55.03;101442.88;5084602;28;20036;-57
2022/10/16 11:06:52;;;;;;;4.43;1.25;;;;;;;20.19;55.01;101456.38;5067978;28;20035;-58
2022/10/16 11:09:22;;;;;;;4.00;1.20;;;;;;;20.19;55.17;101453.69;5067870;28;20044;-55
2022/10/16 11:11:53;;;;;;;2.20;1.13;;;;;;;20.17;55.02;101447.59;5067131;28;20048;-58
2022/10/16 11:14:25;;;;;;;2.88;1.10;;;;;;;20.18;54.90;101452.00;5067538;28;20056;-58
2022/10/16 11:16:55;;;;;;;2.65;1.00;;;;;;;20.19;55.15;101452.84;5084224;28;20051;-57
2022/10/16 11:19:27;;;;;;;2.95;1.15;;;;;;;20.18;55.35;101462.78;5083875;28;20025;-57
2022/10/16 11:22:03;;;;;;;2.03;1.10;;;;;;;20.17;55.35;101468.34;5084199;28;20100;-57
2022/10/16 11:25:04;;;;;;;2.30;1.52;;;;;;;20.17;55.40;101473.75;5146983;27;20047;-56
2022/10/16 11:27:40;;;;;;;5.03;1.38;;;;;;;20.18;55.17;101475.44;5129060;27;20031;-55
2022/10/16 11:30:16;;;;;;;4.35;1.27;;;;;;;20.19;55.45;101477.13;5126116;28;20602;-55
2022/10/16 11:32:51;;;;;;;4.57;1.23;;;;;;;20.19;55.48;101469.88;5126536;28;20016;-57